createdAt,value
2022-08-16T00:00:22.497Z,0.00
2022-08-16T00:01:20.223Z,0.00
2022-08-16T00:02:20.290Z,0.00
2022-08-16T00:03:20.129Z,0.00
2022-08-16T00:04:20.091Z,0.00
2022-08-16T00:05:20.057Z,0.00
2022-08-16T00:06:20.018Z,0.00
2022-08-16T00:07:19.984Z,0.00
2022-08-16T00:08:35.668Z,0.00
2022-08-16T00:09:19.912Z,0.00
2022-08-16T00:10:20.792Z,0.00
2022-08-16T00:11:19.839Z,0.00
2022-08-16T00:12:19.803Z,0.00
2022-08-16T00:13:19.766Z,0.00
2022-08-16T00:14:19.743Z,0.00
2022-08-16T00:15:19.697Z,0.00
2022-08-16T00:17:01.606Z,0.00
2022-08-16T00:17:19.670Z,0.00
2022-08-16T00:18:19.588Z,0.00
2022-08-16T00:19:19.554Z,0.00
2022-08-16T00:20:21.065Z,0.00
2022-08-16T00:21:19.478Z,0.00
2022-08-16T00:22:20.825Z,0.00
2022-08-16T00:23:19.408Z,0.00
2022-08-16T00:24:32.552Z,0.00
2022-08-16T00:25:19.334Z,0.00
2022-08-16T00:26:35.192Z,0.00
2022-08-16T00:27:19.259Z,0.00
2022-08-16T00:28:19.224Z,0.00
2022-08-16T00:29:19.195Z,0.00
2022-08-16T00:30:28.769Z,0.00
2022-08-16T00:31:19.118Z,0.00
2022-08-16T00:32:19.081Z,0.00
2022-08-16T00:33:19.046Z,0.00
2022-08-16T00:34:19.036Z,0.00
2022-08-16T00:35:18.987Z,0.00
2022-08-16T00:36:18.936Z,0.00
2022-08-16T00:37:20.531Z,0.00
2022-08-16T00:38:41.263Z,0.00
2022-08-16T00:39:18.831Z,0.00
2022-08-16T00:40:34.841Z,0.00
2022-08-16T00:41:18.773Z,0.00
2022-08-16T00:42:30.605Z,0.00
2022-08-16T00:43:19.314Z,0.00
2022-08-16T00:44:18.646Z,0.00
2022-08-16T00:45:18.614Z,0.00
2022-08-16T00:46:33.514Z,0.00
2022-08-16T00:47:18.556Z,0.00
2022-08-16T00:48:30.576Z,0.00
2022-08-16T00:49:19.619Z,0.00
2022-08-16T00:50:18.435Z,0.00
2022-08-16T00:51:18.397Z,0.00
2022-08-16T00:52:29.490Z,0.00
2022-08-16T00:53:18.335Z,0.00
2022-08-16T00:54:21.671Z,0.00
2022-08-16T00:55:18.255Z,0.00
2022-08-16T00:56:56.494Z,0.00
2022-08-16T00:57:18.181Z,0.00
2022-08-16T00:58:34.646Z,0.00
2022-08-16T00:59:18.204Z,0.00
2022-08-16T01:00:19.866Z,0.00
2022-08-16T01:01:18.072Z,0.00
2022-08-16T01:02:30.121Z,0.00
2022-08-16T01:03:17.963Z,0.00
2022-08-16T01:04:30.341Z,0.00
2022-08-16T01:05:17.981Z,0.00
2022-08-16T01:06:40.267Z,0.00
2022-08-16T01:07:17.938Z,0.00
2022-08-16T01:08:36.104Z,0.00
2022-08-16T01:09:18.370Z,0.00
2022-08-16T01:10:17.721Z,0.00
2022-08-16T01:11:17.675Z,0.00
2022-08-16T01:12:21.785Z,0.00
2022-08-16T01:13:17.611Z,0.00
2022-08-16T01:14:20.203Z,0.00
2022-08-16T01:15:17.530Z,0.00
2022-08-16T01:16:20.010Z,0.00
2022-08-16T01:17:17.457Z,0.00
2022-08-16T01:18:40.029Z,0.00
2022-08-16T01:19:17.387Z,0.00
2022-08-16T01:20:24.628Z,0.00
2022-08-16T01:21:22.156Z,0.00
2022-08-16T01:22:47.377Z,0.00
2022-08-16T01:23:17.299Z,0.00
2022-08-16T01:24:53.526Z,0.00
2022-08-16T01:25:17.170Z,0.00
2022-08-16T01:26:34.119Z,0.00
2022-08-16T01:27:17.477Z,0.00
2022-08-16T01:28:19.819Z,0.00
2022-08-16T01:29:17.025Z,0.00
2022-08-16T01:30:20.108Z,0.00
2022-08-16T01:31:16.953Z,0.00
2022-08-16T01:32:33.208Z,0.00
2022-08-16T01:33:16.892Z,0.00
2022-08-16T01:34:24.846Z,0.00
2022-08-16T01:35:17.540Z,0.00
2022-08-16T01:36:16.768Z,0.00
2022-08-16T01:37:16.734Z,0.00
2022-08-16T01:38:19.781Z,0.00
2022-08-16T01:39:16.673Z,0.00
2022-08-16T01:40:16.623Z,0.00
2022-08-16T01:41:19.310Z,0.00
2022-08-16T01:42:16.555Z,0.00
2022-08-16T01:43:16.526Z,0.00
2022-08-16T01:44:18.540Z,0.00
2022-08-16T01:45:16.445Z,0.00
2022-08-16T01:46:29.594Z,0.00
2022-08-16T01:47:16.370Z,0.00
2022-08-16T01:48:20.126Z,0.00
2022-08-16T01:49:16.298Z,0.00
2022-08-16T01:50:42.742Z,0.00
2022-08-16T01:51:16.857Z,0.00
2022-08-16T01:52:29.385Z,0.00
2022-08-16T01:53:16.157Z,0.00
2022-08-16T01:54:16.153Z,0.00
2022-08-16T01:55:16.082Z,0.00
2022-08-16T01:56:24.219Z,0.00
2022-08-16T01:57:16.009Z,0.00
2022-08-16T01:58:15.974Z,0.00
2022-08-16T01:59:16.960Z,0.00
2022-08-16T02:00:19.282Z,0.00
2022-08-16T02:01:15.900Z,0.00
2022-08-16T02:02:27.473Z,0.00
2022-08-16T02:03:15.792Z,0.00
2022-08-16T02:04:15.751Z,0.00
2022-08-16T02:05:15.714Z,0.00
2022-08-16T02:06:15.680Z,0.00
2022-08-16T02:07:15.644Z,0.00
2022-08-16T02:08:33.810Z,0.00
2022-08-16T02:09:17.772Z,0.00
2022-08-16T02:10:15.533Z,0.00
2022-08-16T02:11:15.499Z,0.00
2022-08-16T02:12:49.482Z,0.00
2022-08-16T02:13:15.434Z,0.00
2022-08-16T02:14:18.647Z,0.00
2022-08-16T02:15:15.354Z,0.00
2022-08-16T02:16:18.813Z,0.00
2022-08-16T02:17:15.283Z,0.00
2022-08-16T02:18:18.551Z,0.00
2022-08-16T02:19:16.176Z,0.00
2022-08-16T02:20:15.179Z,0.00
2022-08-16T02:21:15.522Z,0.00
2022-08-16T02:22:46.560Z,0.00
2022-08-16T02:23:17.033Z,0.00
2022-08-16T02:24:32.237Z,0.00
2022-08-16T02:25:15.052Z,0.00
2022-08-16T02:26:15.850Z,0.00
2022-08-16T02:27:14.957Z,0.00
2022-08-16T02:28:19.119Z,0.00
2022-08-16T02:29:14.844Z,0.00
2022-08-16T02:30:37.149Z,0.00
2022-08-16T02:31:14.774Z,0.00
2022-08-16T02:33:02.511Z,0.00
2022-08-16T02:33:15.359Z,0.00
2022-08-16T02:34:14.660Z,0.00
2022-08-16T02:35:14.631Z,0.00
2022-08-16T02:36:47.624Z,0.00
2022-08-16T02:37:14.552Z,0.00
2022-08-16T02:38:14.529Z,0.00
2022-08-16T02:39:14.834Z,0.00
2022-08-16T02:40:16.235Z,0.00
2022-08-16T02:41:14.408Z,0.00
2022-08-16T02:42:14.373Z,0.00
2022-08-16T02:43:14.335Z,0.00
2022-08-16T02:44:14.308Z,0.00
2022-08-16T02:45:14.259Z,0.00
2022-08-16T02:46:14.234Z,0.00
2022-08-16T02:47:25.024Z,0.00
2022-08-16T02:48:28.907Z,0.00
2022-08-16T02:49:14.121Z,0.00
2022-08-16T02:50:53.945Z,0.00
2022-08-16T02:51:14.050Z,0.00
2022-08-16T02:52:24.387Z,0.00
2022-08-16T02:53:13.968Z,0.00
2022-08-16T02:54:13.930Z,0.00
2022-08-16T02:55:15.604Z,0.00
2022-08-16T02:56:14.851Z,0.00
2022-08-16T02:57:13.820Z,0.00
2022-08-16T02:58:13.792Z,0.00
2022-08-16T02:59:14.420Z,0.00
2022-08-16T03:00:33.661Z,0.00
2022-08-16T03:01:24.875Z,0.00
2022-08-16T03:02:13.689Z,0.00
2022-08-16T03:03:17.602Z,0.00
2022-08-16T03:04:39.845Z,0.00
2022-08-16T03:05:13.544Z,0.00
2022-08-16T03:06:39.019Z,0.00
2022-08-16T03:07:13.471Z,0.00
2022-08-16T03:08:50.230Z,0.00
2022-08-16T03:09:14.954Z,0.00
2022-08-16T03:10:13.344Z,0.00
2022-08-16T03:11:16.938Z,0.00
2022-08-16T03:12:30.425Z,0.00
2022-08-16T03:13:13.234Z,0.00
2022-08-16T03:14:13.226Z,0.00
2022-08-16T03:15:13.173Z,0.00
2022-08-16T03:16:36.541Z,0.00
2022-08-16T03:17:13.089Z,0.00
2022-08-16T03:18:34.206Z,0.00
2022-08-16T03:19:13.689Z,0.00
2022-08-16T03:20:12.989Z,0.00
2022-08-16T03:21:13.403Z,0.00
2022-08-16T03:22:12.904Z,0.00
2022-08-16T03:23:12.864Z,0.00
2022-08-16T03:24:29.019Z,0.00
2022-08-16T03:25:12.805Z,0.00
2022-08-16T03:26:12.755Z,0.00
2022-08-16T03:27:12.717Z,0.00
2022-08-16T03:28:12.679Z,0.00
2022-08-16T03:29:12.642Z,0.00
2022-08-16T03:30:15.186Z,0.00
2022-08-16T03:31:12.580Z,0.00
2022-08-16T03:32:13.778Z,0.00
2022-08-16T03:33:12.495Z,0.00
2022-08-16T03:34:12.461Z,0.00
2022-08-16T03:35:12.434Z,0.00
2022-08-16T03:36:31.013Z,0.00
2022-08-16T03:37:12.347Z,0.00
2022-08-16T03:38:32.602Z,0.00
2022-08-16T03:39:15.069Z,0.00
2022-08-16T03:40:32.781Z,0.00
2022-08-16T03:41:14.308Z,0.00
2022-08-16T03:42:12.164Z,0.00
2022-08-16T03:43:20.187Z,0.00
2022-08-16T03:44:12.089Z,0.00
2022-08-16T03:45:12.051Z,0.00
2022-08-16T03:46:12.016Z,0.00
2022-08-16T03:47:12.012Z,0.00
2022-08-16T03:48:14.967Z,0.00
2022-08-16T03:49:12.118Z,0.00
2022-08-16T03:50:25.721Z,0.00
2022-08-16T03:51:12.193Z,0.00
2022-08-16T03:52:11.794Z,0.00
2022-08-16T03:53:11.769Z,0.00
2022-08-16T03:54:12.734Z,0.00
2022-08-16T03:55:14.701Z,0.00
2022-08-16T03:56:20.944Z,0.00
2022-08-16T03:57:11.615Z,0.00
2022-08-16T03:58:11.599Z,0.00
2022-08-16T03:59:11.551Z,0.00
2022-08-16T04:00:11.498Z,0.00
2022-08-16T04:01:11.540Z,0.00
2022-08-16T04:02:22.209Z,0.00
2022-08-16T04:03:11.385Z,0.00
2022-08-16T04:04:11.354Z,0.00
2022-08-16T04:05:11.324Z,0.00
2022-08-16T04:06:11.277Z,0.00
2022-08-16T04:07:11.238Z,0.00
2022-08-16T04:08:23.086Z,0.00
2022-08-16T04:09:12.506Z,5.63
2022-08-16T04:10:35.616Z,5.63
2022-08-16T04:11:11.105Z,5.63
2022-08-16T04:12:54.404Z,5.63
2022-08-16T04:13:20.425Z,5.63
2022-08-16T04:14:30.875Z,5.63
2022-08-16T04:15:10.942Z,5.63
2022-08-16T04:16:27.271Z,11.25
2022-08-16T04:17:10.877Z,11.25
2022-08-16T04:18:10.833Z,11.25
2022-08-16T04:19:10.793Z,11.25
2022-08-16T04:20:31.401Z,11.25
2022-08-16T04:21:10.723Z,16.88
2022-08-16T04:22:10.692Z,16.88
2022-08-16T04:23:10.647Z,16.88
2022-08-16T04:24:10.608Z,22.50
2022-08-16T04:25:10.568Z,22.50
2022-08-16T04:26:16.837Z,22.50
2022-08-16T04:27:10.495Z,22.50
2022-08-16T04:28:52.372Z,28.13
2022-08-16T04:29:16.892Z,28.13
2022-08-16T04:30:10.950Z,33.75
2022-08-16T04:31:10.638Z,33.75
2022-08-16T04:32:10.346Z,33.75
2022-08-16T04:33:10.276Z,39.38
2022-08-16T04:34:10.252Z,39.38
2022-08-16T04:35:15.356Z,45.00
2022-08-16T04:36:10.163Z,45.00
2022-08-16T04:37:10.123Z,50.63
2022-08-16T04:38:11.042Z,50.63
2022-08-16T04:39:10.064Z,56.25
2022-08-16T04:40:10.058Z,56.25
2022-08-16T04:41:12.721Z,61.88
2022-08-16T04:42:11.463Z,61.88
2022-08-16T04:43:09.903Z,67.50
2022-08-16T04:44:30.917Z,67.50
2022-08-16T04:45:09.841Z,73.13
2022-08-16T04:46:19.875Z,73.13
2022-08-16T04:47:21.473Z,78.75
2022-08-16T04:48:09.716Z,78.75
2022-08-16T04:49:09.679Z,84.38
2022-08-16T04:50:09.656Z,84.38
2022-08-16T04:51:12.118Z,90.00
2022-08-16T04:52:34.130Z,95.63
2022-08-16T04:53:09.530Z,95.63
2022-08-16T04:54:09.495Z,101.25
2022-08-16T04:55:09.608Z,106.88
2022-08-16T04:56:11.271Z,106.88
2022-08-16T04:57:09.382Z,112.50
2022-08-16T04:58:41.378Z,118.13
2022-08-16T04:59:09.311Z,118.13
2022-08-16T05:00:32.373Z,123.75
2022-08-16T05:01:09.235Z,123.75
2022-08-16T05:02:42.074Z,129.38
2022-08-16T05:03:09.779Z,135.00
2022-08-16T05:04:19.368Z,135.00
2022-08-16T05:05:09.087Z,140.63
2022-08-16T05:06:09.394Z,140.63
2022-08-16T05:07:12.091Z,146.25
2022-08-16T05:08:29.131Z,151.88
2022-08-16T05:09:08.944Z,151.88
2022-08-16T05:10:19.838Z,157.50
2022-08-16T05:11:08.929Z,157.50
2022-08-16T05:12:10.942Z,157.50
2022-08-16T05:13:08.895Z,163.13
2022-08-16T05:14:09.096Z,174.38
2022-08-16T05:15:08.827Z,208.13
2022-08-16T05:16:08.681Z,247.50
2022-08-16T05:17:08.644Z,258.75
2022-08-16T05:18:08.609Z,270.00
2022-08-16T05:19:11.635Z,281.25
2022-08-16T05:20:39.048Z,281.25
2022-08-16T05:21:09.691Z,286.88
2022-08-16T05:22:08.465Z,298.13
2022-08-16T05:23:08.426Z,303.75
2022-08-16T05:24:09.048Z,309.38
2022-08-16T05:25:08.797Z,315.00
2022-08-16T05:26:19.514Z,315.00
2022-08-16T05:27:11.541Z,320.63
2022-08-16T05:28:08.246Z,320.63
2022-08-16T05:29:11.065Z,326.25
2022-08-16T05:30:34.401Z,331.88
2022-08-16T05:31:08.146Z,337.50
2022-08-16T05:32:32.786Z,343.13
2022-08-16T05:33:08.936Z,354.38
2022-08-16T05:34:19.749Z,365.63
2022-08-16T05:35:10.914Z,371.25
2022-08-16T05:36:14.147Z,382.50
2022-08-16T05:37:07.925Z,388.13
2022-08-16T05:38:32.329Z,393.75
2022-08-16T05:39:08.781Z,399.38
2022-08-16T05:40:07.859Z,399.38
2022-08-16T05:41:09.493Z,405.00
2022-08-16T05:42:07.753Z,410.63
2022-08-16T05:43:07.717Z,416.25
2022-08-16T05:44:23.531Z,427.50
2022-08-16T05:45:07.646Z,427.50
2022-08-16T05:46:29.011Z,433.13
2022-08-16T05:47:07.579Z,438.75
2022-08-16T05:48:07.545Z,444.38
2022-08-16T05:49:09.395Z,450.00
2022-08-16T05:50:07.479Z,455.63
2022-08-16T05:51:07.441Z,461.25
2022-08-16T05:52:11.693Z,466.88
2022-08-16T05:53:07.375Z,478.13
2022-08-16T05:54:07.485Z,483.75
2022-08-16T05:55:07.308Z,495.00
2022-08-16T05:56:07.282Z,500.63
2022-08-16T05:57:07.255Z,506.25
2022-08-16T05:58:07.206Z,511.88
2022-08-16T05:59:07.176Z,523.13
2022-08-16T06:00:09.305Z,523.13
2022-08-16T06:01:07.166Z,534.38
2022-08-16T06:02:07.074Z,540.00
2022-08-16T06:03:07.057Z,545.63
2022-08-16T06:04:13.048Z,556.88
2022-08-16T06:05:06.974Z,562.50
2022-08-16T06:06:08.571Z,573.75
2022-08-16T06:07:08.250Z,579.38
2022-08-16T06:08:06.875Z,590.63
2022-08-16T06:09:06.848Z,596.25
2022-08-16T06:10:06.807Z,601.88
2022-08-16T06:11:11.170Z,607.50
2022-08-16T06:12:06.756Z,613.13
2022-08-16T06:13:06.709Z,618.75
2022-08-16T06:14:06.704Z,624.38
2022-08-16T06:15:08.026Z,630.00
2022-08-16T06:16:06.614Z,630.00
2022-08-16T06:17:06.588Z,635.63
2022-08-16T06:18:06.546Z,641.25
2022-08-16T06:19:06.509Z,652.50
2022-08-16T06:20:06.498Z,652.50
2022-08-16T06:21:06.445Z,658.13
2022-08-16T06:22:06.419Z,663.75
2022-08-16T06:23:17.200Z,669.38
2022-08-16T06:24:54.097Z,675.00
2022-08-16T06:25:06.327Z,680.63
2022-08-16T06:26:07.734Z,680.63
2022-08-16T06:27:06.249Z,691.88
2022-08-16T06:28:08.341Z,703.13
2022-08-16T06:29:07.570Z,708.75
2022-08-16T06:30:06.165Z,714.38
2022-08-16T06:31:06.121Z,725.63
2022-08-16T06:32:06.091Z,742.50
2022-08-16T06:33:06.055Z,759.38
2022-08-16T06:34:55.665Z,776.25
2022-08-16T06:35:05.994Z,793.13
2022-08-16T06:36:05.983Z,832.50
2022-08-16T06:37:05.924Z,838.13
2022-08-16T06:38:05.897Z,883.13
2022-08-16T06:39:06.217Z,945.00
2022-08-16T06:40:12.558Z,1023.75
2022-08-16T06:41:05.813Z,1108.13
2022-08-16T06:42:05.782Z,1260.00
2022-08-16T06:43:05.752Z,1518.75
2022-08-16T06:44:05.705Z,1569.38
2022-08-16T06:45:05.667Z,1434.38
2022-08-16T06:46:05.657Z,1513.13
2022-08-16T06:47:05.609Z,1681.88
2022-08-16T06:48:05.589Z,1642.50
2022-08-16T06:49:05.651Z,1828.13
2022-08-16T06:50:05.512Z,1811.25
2022-08-16T06:51:05.584Z,1738.13
2022-08-16T06:52:05.445Z,1867.50
2022-08-16T06:53:08.940Z,1828.13
2022-08-16T06:54:05.395Z,1940.63
2022-08-16T06:55:05.353Z,2154.38
2022-08-16T06:56:05.327Z,2025.00
2022-08-16T06:57:05.290Z,1878.75
2022-08-16T06:58:08.498Z,2025.00
2022-08-16T06:59:05.221Z,2075.63
2022-08-16T07:00:05.190Z,2064.38
2022-08-16T07:01:10.025Z,2092.50
2022-08-16T07:02:05.168Z,2188.13
2022-08-16T07:03:27.854Z,2176.88
2022-08-16T07:04:11.853Z,1980.00
2022-08-16T07:05:15.127Z,2047.50
2022-08-16T07:06:05.001Z,1957.50
2022-08-16T07:07:04.968Z,1698.75
2022-08-16T07:08:04.959Z,1597.50
2022-08-16T07:09:09.522Z,1586.25
2022-08-16T07:10:08.796Z,1631.25
2022-08-16T07:11:04.841Z,1552.50
2022-08-16T07:12:05.695Z,1434.38
2022-08-16T07:13:11.674Z,1395.00
2022-08-16T07:14:23.504Z,1383.75
2022-08-16T07:15:04.716Z,1389.38
2022-08-16T07:16:04.688Z,1338.75
2022-08-16T07:17:08.343Z,1293.75
2022-08-16T07:18:04.624Z,1260.00
2022-08-16T07:19:04.614Z,1237.50
2022-08-16T07:20:35.631Z,1226.25
2022-08-16T07:21:04.538Z,1192.50
2022-08-16T07:22:04.497Z,1175.63
2022-08-16T07:23:04.954Z,1158.75
2022-08-16T07:24:05.800Z,1141.88
2022-08-16T07:25:04.399Z,1136.25
2022-08-16T07:26:04.382Z,1125.00
2022-08-16T07:27:04.340Z,1125.00
2022-08-16T07:28:04.304Z,1102.50
2022-08-16T07:29:04.288Z,1057.50
2022-08-16T07:30:04.700Z,1006.88
2022-08-16T07:31:04.210Z,1006.88
2022-08-16T07:32:04.193Z,1012.50
2022-08-16T07:33:04.146Z,1068.75
2022-08-16T07:34:04.117Z,1074.38
2022-08-16T07:35:04.083Z,1080.00
2022-08-16T07:36:04.052Z,1063.13
2022-08-16T07:37:04.046Z,1085.63
2022-08-16T07:38:04.015Z,1085.63
2022-08-16T07:39:03.983Z,1080.00
2022-08-16T07:40:11.443Z,1091.25
2022-08-16T07:41:09.431Z,1096.88
2022-08-16T07:42:03.873Z,1091.25
2022-08-16T07:43:03.837Z,1085.63
2022-08-16T07:44:03.813Z,1091.25
2022-08-16T07:45:07.489Z,1091.25
2022-08-16T07:46:03.740Z,1108.13
2022-08-16T07:47:03.713Z,1102.50
2022-08-16T07:48:11.319Z,1108.13
2022-08-16T07:49:03.808Z,1113.75
2022-08-16T07:50:05.570Z,1119.38
2022-08-16T07:51:08.673Z,1130.63
2022-08-16T07:52:18.771Z,1136.25
2022-08-16T07:53:03.525Z,1141.88
2022-08-16T07:54:09.347Z,1153.13
2022-08-16T07:55:03.491Z,1153.13
2022-08-16T07:56:04.428Z,1158.75
2022-08-16T07:57:03.403Z,1164.38
2022-08-16T07:58:03.580Z,1170.00
2022-08-16T07:59:03.349Z,1175.63
2022-08-16T08:00:03.309Z,1181.25
2022-08-16T08:01:03.336Z,1192.50
2022-08-16T08:02:03.267Z,1209.38
2022-08-16T08:03:03.248Z,1209.38
2022-08-16T08:04:03.435Z,1220.63
2022-08-16T08:05:03.632Z,1226.25
2022-08-16T08:06:03.145Z,1237.50
2022-08-16T08:07:03.106Z,1248.75
2022-08-16T08:08:03.096Z,1260.00
2022-08-16T08:09:03.039Z,1271.25
2022-08-16T08:10:03.892Z,1282.50
2022-08-16T08:11:09.075Z,1288.13
2022-08-16T08:12:05.338Z,1310.63
2022-08-16T08:13:02.920Z,1327.50
2022-08-16T08:14:03.939Z,1333.13
2022-08-16T08:15:02.863Z,1344.38
2022-08-16T08:16:02.835Z,1350.00
2022-08-16T08:17:02.802Z,1366.88
2022-08-16T08:18:29.704Z,1378.13
2022-08-16T08:19:03.187Z,1395.00
2022-08-16T08:20:02.746Z,1406.25
2022-08-16T08:21:02.690Z,1428.75
2022-08-16T08:22:06.173Z,1440.00
2022-08-16T08:23:02.646Z,1456.88
2022-08-16T08:24:02.599Z,1479.38
2022-08-16T08:25:03.549Z,1501.88
2022-08-16T08:26:02.558Z,1530.00
2022-08-16T08:27:03.869Z,1546.88
2022-08-16T08:28:02.485Z,1575.00
2022-08-16T08:29:02.442Z,1597.50
2022-08-16T08:30:50.074Z,1631.25
2022-08-16T08:31:02.907Z,1665.00
2022-08-16T08:32:02.361Z,1693.13
2022-08-16T08:33:02.525Z,1732.50
2022-08-16T08:34:04.772Z,1755.00
2022-08-16T08:35:03.925Z,1783.13
2022-08-16T08:36:02.238Z,1822.50
2022-08-16T08:37:02.203Z,1861.88
2022-08-16T08:38:02.180Z,1901.25
2022-08-16T08:39:02.169Z,1940.63
2022-08-16T08:40:02.148Z,1974.38
2022-08-16T08:41:02.081Z,2013.75
2022-08-16T08:42:02.052Z,2081.25
2022-08-16T08:43:12.169Z,2115.00
2022-08-16T08:44:28.713Z,2154.38
2022-08-16T08:45:01.967Z,2205.00
2022-08-16T08:46:01.946Z,2266.88
2022-08-16T08:47:02.733Z,2323.13
2022-08-16T08:48:01.882Z,2379.38
2022-08-16T08:49:02.422Z,2418.75
2022-08-16T08:50:01.818Z,2475.00
2022-08-16T08:51:01.789Z,2514.38
2022-08-16T08:52:01.758Z,2531.25
2022-08-16T08:53:01.734Z,2559.38
2022-08-16T08:54:01.700Z,2604.38
2022-08-16T08:55:01.685Z,2660.63
2022-08-16T08:56:01.641Z,2716.88
2022-08-16T08:57:01.629Z,2756.25
2022-08-16T08:58:01.584Z,2778.75
2022-08-16T08:59:04.726Z,2795.63
2022-08-16T09:00:01.531Z,2835.00
2022-08-16T09:01:02.072Z,2868.75
2022-08-16T09:02:01.474Z,2941.88
2022-08-16T09:03:04.386Z,2986.88
2022-08-16T09:04:01.478Z,3020.63
2022-08-16T09:05:01.404Z,3054.38
2022-08-16T09:06:01.939Z,3043.13
2022-08-16T09:07:02.019Z,3071.25
2022-08-16T09:08:05.808Z,3133.13
2022-08-16T09:09:01.269Z,3155.63
2022-08-16T09:10:06.894Z,3228.75
2022-08-16T09:11:02.572Z,3223.13
2022-08-16T09:12:06.415Z,3206.25
2022-08-16T09:13:08.868Z,3183.75
2022-08-16T09:14:01.121Z,3200.63
2022-08-16T09:15:01.098Z,3223.13
2022-08-16T09:16:01.080Z,3189.38
2022-08-16T09:17:11.330Z,3183.75
2022-08-16T09:18:01.011Z,3273.75
2022-08-16T09:19:03.821Z,3262.50
2022-08-16T09:20:04.647Z,3206.25
2022-08-16T09:21:00.929Z,3301.88
2022-08-16T09:22:00.912Z,3335.63
2022-08-16T09:23:00.870Z,3352.50
2022-08-16T09:24:00.839Z,3346.88
2022-08-16T09:25:11.015Z,3397.50
2022-08-16T09:26:00.783Z,3391.88
2022-08-16T09:27:00.758Z,3391.88
2022-08-16T09:28:02.823Z,3397.50
2022-08-16T09:29:15.608Z,3442.50
2022-08-16T09:30:31.530Z,3487.50
2022-08-16T09:31:00.645Z,3543.75
2022-08-16T09:32:00.618Z,3560.63
2022-08-16T09:33:00.589Z,3605.63
2022-08-16T09:34:00.573Z,3577.50
2022-08-16T09:35:00.536Z,3510.00
2022-08-16T09:36:00.519Z,3616.88
2022-08-16T09:37:00.483Z,3605.63
2022-08-16T09:38:01.317Z,3555.00
2022-08-16T09:39:00.437Z,3549.38
2022-08-16T09:40:00.568Z,3639.38
2022-08-16T09:41:00.439Z,3690.00
2022-08-16T09:42:00.342Z,3678.75
2022-08-16T09:43:00.358Z,3661.88
2022-08-16T09:45:08.944Z,3622.50
2022-08-16T09:45:11.952Z,3622.50
2022-08-16T09:46:00.233Z,3701.25
2022-08-16T09:47:00.206Z,3729.38
2022-08-16T09:48:00.180Z,3673.13
2022-08-16T09:49:03.371Z,3740.63
2022-08-16T09:50:00.162Z,3796.88
2022-08-16T09:51:00.104Z,3830.63
2022-08-16T09:52:00.076Z,3853.13
2022-08-16T09:53:00.047Z,3825.00
2022-08-16T09:54:00.019Z,3791.25
2022-08-16T09:55:00.005Z,3785.63
2022-08-16T09:55:59.976Z,3701.25
2022-08-16T09:56:59.938Z,3661.88
2022-08-16T09:57:59.914Z,3701.25
2022-08-16T09:59:05.544Z,3678.75
2022-08-16T09:59:59.858Z,3661.88
2022-08-16T10:01:01.024Z,3622.50
2022-08-16T10:01:59.805Z,3588.75
2022-08-16T10:02:59.825Z,3526.88
2022-08-16T10:04:02.727Z,3521.25
2022-08-16T10:04:59.839Z,3504.38
2022-08-16T10:05:59.695Z,3673.13
2022-08-16T10:07:59.639Z,3695.63
2022-08-16T10:09:05.330Z,3346.88
2022-08-16T10:09:59.589Z,3380.63
2022-08-16T10:10:59.562Z,3723.75
2022-08-16T10:12:11.357Z,3690.00
2022-08-16T10:12:59.518Z,3746.25
2022-08-16T10:13:59.479Z,3543.75
2022-08-16T10:14:59.466Z,2750.63
2022-08-16T10:15:59.483Z,3768.75
2022-08-16T10:16:59.945Z,3774.38
2022-08-16T10:18:01.594Z,3751.88
2022-08-16T10:19:06.229Z,3729.38
2022-08-16T10:19:59.311Z,3706.88
2022-08-16T10:20:59.290Z,3757.50
2022-08-16T10:21:59.259Z,3774.38
2022-08-16T10:23:05.704Z,3785.63
2022-08-16T10:23:59.217Z,3802.50
2022-08-16T10:24:59.733Z,3813.75
2022-08-16T10:27:19.127Z,3847.50
2022-08-16T10:27:25.833Z,3819.38
2022-08-16T10:28:27.970Z,3825.00
2022-08-16T10:28:59.906Z,3802.50
2022-08-16T10:30:01.671Z,3768.75
2022-08-16T10:30:59.554Z,3763.13
2022-08-16T10:31:58.983Z,3706.88
2022-08-16T10:32:58.958Z,2497.50
2022-08-16T10:33:58.931Z,2716.88
2022-08-16T10:34:58.903Z,3369.38
2022-08-16T10:36:03.301Z,3583.13
2022-08-16T10:36:58.856Z,1766.25
2022-08-16T10:37:58.821Z,3616.88
2022-08-16T10:38:58.807Z,3673.13
2022-08-16T10:39:58.806Z,3031.88
2022-08-16T10:40:58.736Z,3633.75
2022-08-16T10:41:58.709Z,3701.25
2022-08-16T10:42:58.688Z,3735.00
2022-08-16T10:43:58.653Z,3690.00
2022-08-16T10:44:58.646Z,3616.88
2022-08-16T10:46:00.164Z,3684.38
2022-08-16T10:46:58.571Z,3667.50
2022-08-16T10:48:02.697Z,3706.88
2022-08-16T10:48:58.562Z,3678.75
2022-08-16T10:49:58.488Z,3538.13
2022-08-16T10:50:59.029Z,3414.38
2022-08-16T10:52:02.820Z,3465.00
2022-08-16T10:52:59.209Z,3476.25
2022-08-16T10:53:58.380Z,3510.00
2022-08-16T10:54:59.041Z,3566.25
2022-08-16T10:55:58.334Z,3600.00
2022-08-16T10:56:58.299Z,3583.13
2022-08-16T10:57:58.268Z,3296.25
2022-08-16T10:59:32.793Z,3465.00
2022-08-16T10:59:58.686Z,3566.25
2022-08-16T11:00:58.341Z,3605.63
2022-08-16T11:03:01.222Z,3650.63
2022-08-16T11:03:58.239Z,3622.50
2022-08-16T11:05:06.913Z,3622.50
2022-08-16T11:05:59.655Z,3588.75
2022-08-16T11:07:58.195Z,3526.88
2022-08-16T11:10:19.884Z,3571.88
2022-08-16T11:11:05.516Z,3476.25
2022-08-16T11:12:14.853Z,3566.25
2022-08-16T11:13:21.166Z,1614.38
2022-08-16T11:13:59.620Z,1215.00
2022-08-16T11:15:13.575Z,1586.25
2022-08-16T11:15:58.033Z,1265.63
2022-08-16T11:17:02.027Z,1164.38
2022-08-16T11:19:05.853Z,1715.63
2022-08-16T11:20:36.822Z,1659.38
2022-08-16T11:20:57.638Z,1766.25
2022-08-16T11:22:39.310Z,1777.50
2022-08-16T11:22:57.593Z,2064.38
2022-08-16T11:23:58.899Z,1395.00
2022-08-16T11:25:16.289Z,1254.38
2022-08-16T11:26:07.715Z,1530.00
2022-08-16T11:27:57.448Z,2722.50
2022-08-16T11:29:13.621Z,3223.13
2022-08-16T11:29:57.380Z,3442.50
2022-08-16T11:30:57.682Z,3363.75
2022-08-16T11:31:57.323Z,2520.00
2022-08-16T11:32:57.295Z,3510.00
2022-08-16T11:33:57.286Z,3498.75
2022-08-16T11:35:14.268Z,3639.38
2022-08-16T11:37:01.085Z,3611.25
2022-08-16T11:38:46.479Z,3560.63
2022-08-16T11:38:58.003Z,3808.13
2022-08-16T11:40:00.040Z,3543.75
2022-08-16T11:40:57.067Z,3735.00
2022-08-16T11:41:57.233Z,3538.13
2022-08-16T11:42:57.014Z,3330.00
2022-08-16T11:43:56.993Z,3375.00
2022-08-16T11:44:57.231Z,3706.88
2022-08-16T11:45:56.942Z,3819.38
2022-08-16T11:46:56.898Z,3706.88
2022-08-16T11:47:56.872Z,3690.00
2022-08-16T11:48:56.852Z,2244.38
2022-08-16T11:49:56.812Z,1091.25
2022-08-16T11:50:56.788Z,1417.50
2022-08-16T11:51:56.761Z,3510.00
2022-08-16T11:52:56.739Z,3639.38
2022-08-16T11:53:56.721Z,3684.38
2022-08-16T11:54:57.224Z,3690.00
2022-08-16T11:55:56.649Z,3318.75
2022-08-16T11:56:57.711Z,753.75
2022-08-16T11:57:56.593Z,1597.50
2022-08-16T11:58:56.979Z,826.88
2022-08-16T11:59:56.552Z,1068.75
2022-08-16T12:00:56.506Z,3594.38
2022-08-16T12:02:00.015Z,3526.88
2022-08-16T12:02:56.452Z,3566.25
2022-08-16T12:03:56.454Z,3645.00
2022-08-16T12:04:56.393Z,3673.13
2022-08-16T12:05:56.370Z,3690.00
2022-08-16T12:06:56.353Z,2941.88
2022-08-16T12:07:56.309Z,3543.75
2022-08-16T12:08:56.280Z,3645.00
2022-08-16T12:09:56.256Z,1906.88
2022-08-16T12:10:59.376Z,3009.38
2022-08-16T12:11:56.208Z,3318.75
2022-08-16T12:12:57.901Z,1372.50
2022-08-16T12:13:56.142Z,2553.75
2022-08-16T12:14:59.874Z,3335.63
2022-08-16T12:15:56.087Z,2165.63
2022-08-16T12:16:57.030Z,3116.25
2022-08-16T12:17:56.053Z,3453.75
2022-08-16T12:18:56.008Z,3577.50
2022-08-16T12:19:55.979Z,3144.38
2022-08-16T12:20:58.353Z,3251.25
2022-08-16T12:21:59.307Z,2328.75
2022-08-16T12:22:55.897Z,2930.63
2022-08-16T12:23:55.871Z,3009.38
2022-08-16T12:24:55.842Z,798.75
2022-08-16T12:25:55.818Z,855.00
2022-08-16T12:26:55.802Z,956.25
2022-08-16T12:27:55.762Z,973.13
2022-08-16T12:28:56.399Z,990.00
2022-08-16T12:29:58.689Z,832.50
2022-08-16T12:30:55.675Z,725.63
2022-08-16T12:32:01.133Z,663.75
2022-08-16T12:32:57.887Z,720.00
2022-08-16T12:33:57.571Z,1659.38
2022-08-16T12:34:55.559Z,1456.88
2022-08-16T12:35:55.534Z,1299.38
2022-08-16T12:36:55.501Z,1237.50
2022-08-16T12:37:56.817Z,1040.63
2022-08-16T12:38:55.445Z,1091.25
2022-08-16T12:39:55.466Z,1085.63
2022-08-16T12:40:56.974Z,905.63